Terminal Aerodrome Forecast
Issued by NWS

Home | Current Version | Previous Version | Text Only | Print | Product List | Glossary On
Versions: 1 2 3 4 5 6 7 8 9 10 11 12 13 14 15 16 17 18 19 20 21 22 23 24 25 26 27 28 29 30 31 32 33 34 35 36 37 38 39 40 41 42 43 44
000
FTUS42 KGSP 272341
TAFHKY
TAF
KHKY 272341Z 2800/2824 VRB02KT P6SM SCT060 SCT200
      TEMPO 2804/2807 4SM BR FEW004
     FM280700 VRB02KT 4SM BR FEW004 BKN050
     FM280900 VRB02KT 2SM BR SCT004 BKN025
     FM281300 VRB02KT P6SM SCT020
     FM281700 20005KT P6SM BKN060 PROB30 2817/2823 4SM -TSRA
      OVC040CB=

USA.gov is the U.S. government's official web portal to all federal, state and local government web resources and services.